createdAt,value
2023-01-30T00:09:48.643Z,1010.19
2023-01-30T00:19:55.870Z,1009.96
2023-01-30T00:30:03.788Z,1009.62
2023-01-30T00:40:12.526Z,1009.08
2023-01-30T00:50:19.429Z,1008.71
2023-01-30T01:00:26.473Z,1008.63
2023-01-30T01:10:33.269Z,1008.48
2023-01-30T01:20:41.135Z,1007.84
2023-01-30T01:30:48.654Z,1007.80
2023-01-30T01:40:55.432Z,1008.03
2023-01-30T01:51:02.786Z,1007.97
2023-01-30T02:01:09.759Z,1007.50
2023-01-30T02:11:17.664Z,1007.04
2023-01-30T02:21:24.645Z,1006.73
2023-01-30T02:31:31.760Z,1006.53
2023-01-30T02:41:38.636Z,1006.38
2023-01-30T02:51:46.102Z,1006.01
2023-01-30T03:01:53.449Z,1005.97
2023-01-30T03:12:00.959Z,1005.71
2023-01-30T03:22:08.992Z,1005.49
2023-01-30T03:32:16.101Z,1005.32
2023-01-30T03:42:23.157Z,1005.21
2023-01-30T03:52:29.962Z,1005.08
2023-01-30T04:02:37.235Z,1004.90
2023-01-30T04:12:44.110Z,1004.56
2023-01-30T04:22:51.399Z,1004.35
2023-01-30T04:32:58.128Z,1004.30
2023-01-30T04:43:05.263Z,1004.31
2023-01-30T04:53:12.335Z,1004.02
2023-01-30T05:03:18.931Z,1003.94
2023-01-30T05:13:24.951Z,1003.90
2023-01-30T05:23:32.074Z,1003.68
2023-01-30T05:33:38.975Z,1003.50
2023-01-30T05:43:45.386Z,1003.25
2023-01-30T05:53:52.683Z,1003.05
2023-01-30T06:03:59.761Z,1002.87
2023-01-30T06:14:06.608Z,1002.97
2023-01-30T06:24:13.366Z,1002.91
2023-01-30T06:34:20.439Z,1003.07
2023-01-30T06:44:28.038Z,1003.07
2023-01-30T06:54:34.668Z,1002.91
2023-01-30T07:04:41.832Z,1002.79
2023-01-30T07:14:48.835Z,1002.68
2023-01-30T07:24:55.959Z,1002.60
2023-01-30T07:35:05.768Z,1002.60
2023-01-30T07:45:13.133Z,1002.64
2023-01-30T07:55:20.436Z,1002.67
2023-01-30T08:05:27.233Z,1002.73
2023-01-30T08:15:34.208Z,1002.63
2023-01-30T08:25:41.090Z,1002.70
2023-01-30T08:35:48.469Z,1002.71
2023-01-30T08:45:55.381Z,1002.74
2023-01-30T08:56:01.253Z,1002.82
2023-01-30T09:06:07.014Z,1002.90
2023-01-30T09:16:14.338Z,1002.95
2023-01-30T09:26:21.109Z,1002.87
2023-01-30T09:36:28.128Z,1002.94
2023-01-30T09:46:35.287Z,1002.95
2023-01-30T09:56:42.221Z,1002.77
2023-01-30T10:06:49.435Z,1002.80
2023-01-30T10:16:56.705Z,1002.73
2023-01-30T10:27:04.841Z,1002.86
2023-01-30T10:37:12.567Z,1002.77
2023-01-30T10:47:22.131Z,1002.62
2023-01-30T10:57:30.935Z,1002.64
2023-01-30T11:07:37.798Z,1002.40
2023-01-30T11:17:44.648Z,1002.33
2023-01-30T11:27:52.094Z,1002.03
2023-01-30T11:37:59.686Z,1001.84
2023-01-30T11:48:07.867Z,1001.67
2023-01-30T11:58:17.307Z,1001.73
2023-01-30T12:08:39.446Z,1001.68
2023-01-30T12:18:36.166Z,1001.50
2023-01-30T12:28:43.177Z,1001.33
2023-01-30T12:38:50.341Z,1001.22
2023-01-30T12:59:08.053Z,1000.93
2023-01-30T13:09:14.315Z,1001.00
2023-01-30T13:19:23.081Z,1000.84
2023-01-30T13:29:32.328Z,1000.83
2023-01-30T13:39:42.599Z,1000.83
2023-01-30T13:49:50.370Z,1000.96
2023-01-30T13:59:57.917Z,1001.23
2023-01-30T14:10:04.441Z,1001.47
2023-01-30T14:20:11.527Z,1001.42
2023-01-30T14:30:19.454Z,1001.92
2023-01-30T14:40:26.341Z,1002.25
2023-01-30T14:50:34.129Z,1002.51
2023-01-30T15:00:40.754Z,1002.53
2023-01-30T15:10:46.938Z,1002.61
2023-01-30T15:20:53.587Z,1002.52
2023-01-30T15:31:00.885Z,1002.54
2023-01-30T15:41:07.769Z,1002.59
2023-01-30T15:51:15.118Z,1002.84
2023-01-30T16:01:22.339Z,1002.90
2023-01-30T16:11:28.707Z,1003.06
2023-01-30T16:21:35.898Z,1003.20
2023-01-30T16:31:43.277Z,1003.38
2023-01-30T16:41:50.145Z,1003.54
2023-01-30T16:51:57.511Z,1003.75
2023-01-30T17:02:05.303Z,1003.87
2023-01-30T17:12:12.414Z,1004.18
2023-01-30T17:22:19.441Z,1004.17
2023-01-30T17:32:26.800Z,1004.51
2023-01-30T17:42:33.284Z,1004.73
2023-01-30T17:52:40.462Z,1004.97
2023-01-30T18:02:46.780Z,1005.15
2023-01-30T18:12:53.309Z,1005.39
2023-01-30T18:22:59.759Z,1005.68
2023-01-30T18:33:07.000Z,1005.79
2023-01-30T18:43:13.617Z,1006.07
2023-01-30T18:53:20.611Z,1006.32
2023-01-30T19:03:26.630Z,1006.55
2023-01-30T19:13:33.560Z,1006.75
2023-01-30T19:23:40.821Z,1006.95
2023-01-30T19:33:48.122Z,1007.17
2023-01-30T19:43:55.183Z,1007.45
2023-01-30T19:54:02.311Z,1007.51
2023-01-30T20:04:08.980Z,1007.46
2023-01-30T20:14:16.135Z,1007.88
2023-01-30T20:24:22.946Z,1008.11
2023-01-30T20:34:29.913Z,1008.18
2023-01-30T20:44:37.459Z,1008.33
2023-01-30T20:54:44.253Z,1008.57
2023-01-30T21:04:51.343Z,1008.65
2023-01-30T21:14:58.573Z,1008.84
2023-01-30T21:25:05.621Z,1008.90
2023-01-30T21:35:13.016Z,1009.30
2023-01-30T21:45:20.229Z,1009.38
2023-01-30T21:55:27.826Z,1009.46
2023-01-30T22:05:34.558Z,1009.68
2023-01-30T22:15:41.834Z,1009.83
2023-01-30T22:25:48.844Z,1009.89
2023-01-30T22:35:55.762Z,1010.01
2023-01-30T22:46:01.565Z,1010.16
2023-01-30T22:56:07.845Z,1010.22
2023-01-30T23:06:14.907Z,1010.29
2023-01-30T23:16:21.536Z,1010.52
2023-01-30T23:26:29.146Z,1010.67
2023-01-30T23:36:36.542Z,1010.64
2023-01-30T23:46:42.863Z,1010.58
2023-01-30T23:56:49.879Z,1010.56
